createdAt,value
2018-12-01T00:02:11.913Z,8.50
2018-12-01T00:06:15.582Z,8.50
2018-12-01T00:10:19.354Z,8.50
2018-12-01T00:14:23.018Z,8.40
2018-12-01T00:18:26.795Z,8.40
2018-12-01T00:22:30.526Z,8.50
2018-12-01T00:26:34.722Z,8.40
2018-12-01T00:30:38.426Z,8.50
2018-12-01T00:34:42.113Z,8.50
2018-12-01T00:38:45.914Z,8.50
2018-12-01T00:42:49.625Z,8.60
2018-12-01T00:46:53.359Z,8.60
2018-12-01T00:50:57.619Z,8.60
2018-12-01T00:55:00.838Z,8.70
2018-12-01T00:59:04.586Z,8.70
2018-12-01T01:03:08.328Z,8.80
2018-12-01T01:07:12.197Z,8.80
2018-12-01T01:11:15.898Z,8.80
2018-12-01T01:15:19.725Z,8.80
2018-12-01T01:19:23.518Z,8.80
2018-12-01T01:23:27.228Z,8.80
2018-12-01T01:27:30.954Z,8.80
2018-12-01T01:31:34.607Z,8.80
2018-12-01T01:35:38.322Z,8.80
2018-12-01T01:39:42.099Z,8.80
2018-12-01T01:43:45.905Z,8.80
2018-12-01T01:47:49.604Z,8.80
2018-12-01T01:51:53.337Z,8.30
2018-12-01T01:55:57.039Z,8.10
2018-12-01T02:00:00.731Z,7.90
2018-12-01T02:04:04.609Z,7.80
2018-12-01T02:08:08.290Z,8.00
2018-12-01T02:12:12.085Z,8.20
2018-12-01T02:16:15.811Z,8.30
2018-12-01T02:20:19.646Z,8.40
2018-12-01T02:24:23.342Z,8.40
2018-12-01T02:28:27.008Z,8.40
2018-12-01T02:32:30.716Z,8.40
2018-12-01T02:36:34.422Z,8.40
2018-12-01T02:40:38.138Z,8.40
2018-12-01T02:45:05.017Z,8.40
2018-12-01T02:49:08.711Z,8.40
2018-12-01T02:53:12.453Z,8.40
2018-12-01T02:57:16.199Z,8.40
2018-12-01T03:01:19.966Z,8.40
2018-12-01T03:05:24.509Z,8.40
2018-12-01T03:09:28.159Z,8.40
2018-12-01T03:13:31.898Z,8.40
2018-12-01T03:17:35.617Z,8.40
2018-12-01T03:21:39.310Z,8.30
2018-12-01T03:25:42.974Z,8.30
2018-12-01T03:29:46.719Z,8.30
2018-12-01T03:33:50.498Z,8.30
2018-12-01T03:37:54.326Z,8.30
2018-12-01T03:41:58.014Z,8.30
2018-12-01T03:46:01.647Z,8.30
2018-12-01T03:50:06.482Z,8.30
2018-12-01T03:54:10.179Z,8.30
2018-12-01T03:58:13.919Z,8.20
2018-12-01T04:02:17.681Z,8.30
2018-12-01T04:06:21.343Z,8.20
2018-12-01T04:10:25.101Z,8.30
2018-12-01T04:14:28.838Z,8.30
2018-12-01T04:18:32.593Z,8.40
2018-12-01T04:22:36.319Z,8.40
2018-12-01T04:26:40.022Z,8.40
2018-12-01T04:30:43.707Z,8.40
2018-12-01T04:34:47.417Z,8.40
2018-12-01T04:38:51.183Z,8.40
2018-12-01T04:42:54.942Z,8.40
2018-12-01T04:46:58.598Z,8.50
2018-12-01T04:51:02.350Z,8.50
2018-12-01T04:55:08.774Z,8.50
2018-12-01T04:59:12.462Z,8.50
2018-12-01T05:03:16.219Z,8.50
2018-12-01T05:07:19.894Z,8.40
2018-12-01T05:11:23.581Z,8.40
2018-12-01T05:15:27.317Z,8.40
2018-12-01T05:19:31.138Z,8.40
2018-12-01T05:23:34.821Z,8.40
2018-12-01T05:27:38.528Z,8.40
2018-12-01T05:31:42.237Z,8.40
2018-12-01T05:35:45.935Z,8.50
2018-12-01T05:39:49.621Z,8.50
2018-12-01T05:43:53.348Z,8.50
2018-12-01T05:47:57.117Z,8.50
2018-12-01T05:52:00.845Z,8.50
2018-12-01T05:56:04.645Z,8.50
2018-12-01T06:00:10.880Z,8.50
2018-12-01T06:04:14.573Z,8.60
2018-12-01T06:08:18.262Z,8.60
2018-12-01T06:12:22.008Z,8.60
2018-12-01T06:16:25.809Z,8.60
2018-12-01T06:20:29.559Z,8.70
2018-12-01T06:24:33.290Z,8.70
2018-12-01T06:28:36.990Z,8.70
2018-12-01T06:32:40.727Z,8.80
2018-12-01T06:36:44.427Z,8.80
2018-12-01T06:40:48.202Z,8.80
2018-12-01T06:44:51.941Z,8.80
2018-12-01T06:48:55.633Z,8.90
2018-12-01T06:52:59.408Z,8.90
2018-12-01T06:57:03.093Z,8.90
2018-12-01T07:01:06.791Z,8.80
2018-12-01T07:05:11.513Z,8.80
2018-12-01T07:09:15.354Z,8.80
2018-12-01T07:13:19.103Z,8.80
2018-12-01T07:17:22.883Z,8.80
2018-12-01T07:21:26.591Z,8.80
2018-12-01T07:25:30.292Z,8.70
2018-12-01T07:29:34.113Z,8.70
2018-12-01T07:33:37.857Z,8.80
2018-12-01T07:37:41.674Z,8.70
2018-12-01T07:41:45.448Z,8.70
2018-12-01T07:45:49.136Z,8.80
2018-12-01T07:49:52.865Z,8.80
2018-12-01T07:53:56.571Z,8.80
2018-12-01T07:58:00.268Z,8.80
2018-12-01T08:02:03.995Z,8.90
2018-12-01T08:06:07.786Z,8.90
2018-12-01T08:10:13.392Z,8.90
2018-12-01T08:14:17.082Z,8.90
2018-12-01T08:18:20.787Z,9.00
2018-12-01T08:22:24.562Z,9.00
2018-12-01T08:26:28.274Z,9.00
2018-12-01T08:30:33.262Z,9.10
2018-12-01T08:34:37.591Z,9.10
2018-12-01T08:38:41.841Z,9.10
2018-12-01T08:42:45.632Z,9.10
2018-12-01T08:46:49.439Z,9.20
2018-12-01T08:50:57.593Z,9.20
2018-12-01T08:55:01.226Z,9.20
2018-12-01T08:59:04.978Z,9.30
2018-12-01T09:03:14.658Z,9.30
2018-12-01T09:07:18.333Z,9.40
2018-12-01T09:11:22.040Z,9.50
2018-12-01T09:15:25.715Z,9.50
2018-12-01T09:19:29.446Z,9.60
2018-12-01T09:23:33.257Z,9.60
2018-12-01T09:27:36.982Z,9.80
2018-12-01T09:31:40.727Z,9.80
2018-12-01T09:35:44.381Z,9.90
2018-12-01T09:39:48.079Z,9.60
2018-12-01T09:43:51.754Z,9.40
2018-12-01T09:47:56.311Z,9.30
2018-12-01T09:51:59.958Z,9.30
2018-12-01T09:56:03.644Z,9.20
2018-12-01T10:00:12.893Z,9.20
2018-12-01T10:04:16.586Z,9.20
2018-12-01T10:08:20.294Z,9.20
2018-12-01T10:12:23.970Z,9.20
2018-12-01T10:16:27.670Z,9.30
2018-12-01T10:20:32.967Z,9.30
2018-12-01T10:24:36.662Z,9.40
2018-12-01T10:28:40.402Z,9.40
2018-12-01T10:32:44.057Z,9.40
2018-12-01T10:36:47.771Z,9.50
2018-12-01T10:40:51.474Z,9.50
2018-12-01T10:44:55.185Z,9.60
2018-12-01T10:48:58.874Z,9.60
2018-12-01T10:53:02.525Z,9.60
2018-12-01T10:57:06.473Z,9.70
2018-12-01T11:01:15.521Z,9.70
2018-12-01T11:05:19.206Z,9.80
2018-12-01T11:09:22.911Z,9.80
2018-12-01T11:13:26.650Z,9.90
2018-12-01T11:17:30.420Z,9.90
2018-12-01T11:21:34.099Z,9.90
2018-12-01T11:25:38.338Z,9.90
2018-12-01T11:29:42.113Z,9.90
2018-12-01T11:33:45.842Z,9.90
2018-12-01T11:37:49.679Z,9.90
2018-12-01T11:41:53.362Z,9.90
2018-12-01T11:45:57.087Z,9.90
2018-12-01T11:50:00.817Z,9.90
2018-12-01T11:54:04.971Z,9.90
2018-12-01T11:58:08.686Z,9.90
2018-12-01T12:02:12.482Z,9.90
2018-12-01T12:06:19.689Z,10.00
2018-12-01T12:10:23.411Z,10.00
2018-12-01T12:14:27.111Z,10.00
2018-12-01T12:18:30.870Z,10.10
2018-12-01T12:22:34.657Z,10.10
2018-12-01T12:26:38.305Z,10.10
2018-12-01T12:30:42.034Z,10.10
2018-12-01T12:34:45.706Z,10.20
2018-12-01T12:38:49.476Z,10.20
2018-12-01T12:42:54.222Z,10.20
2018-12-01T12:46:57.912Z,10.20
2018-12-01T12:51:01.586Z,10.20
2018-12-01T12:55:07.211Z,10.30
2018-12-01T12:59:10.886Z,10.30
2018-12-01T13:03:14.613Z,10.30
2018-12-01T13:07:18.272Z,10.40
2018-12-01T13:11:21.953Z,10.40
2018-12-01T13:15:25.690Z,10.40
2018-12-01T13:19:29.432Z,10.40
2018-12-01T13:23:33.140Z,10.50
2018-12-01T13:27:36.933Z,10.50
2018-12-01T13:31:40.670Z,10.40
2018-12-01T13:35:44.411Z,10.30
2018-12-01T13:39:48.102Z,10.30
2018-12-01T13:43:51.773Z,10.30
2018-12-01T13:47:55.483Z,10.30
2018-12-01T13:51:59.162Z,10.30
2018-12-01T13:56:02.863Z,10.20
2018-12-01T14:00:15.246Z,10.20
2018-12-01T14:04:18.911Z,10.20
2018-12-01T14:08:22.683Z,10.10
2018-12-01T14:12:26.435Z,10.40
2018-12-01T14:16:36.674Z,10.30
2018-12-01T14:20:40.456Z,10.30
2018-12-01T14:24:44.131Z,10.20
2018-12-01T14:28:47.805Z,10.10
2018-12-01T14:32:51.726Z,10.10
2018-12-01T14:36:55.385Z,10.10
2018-12-01T14:40:59.032Z,10.00
2018-12-01T14:45:02.641Z,10.00
2018-12-01T14:49:06.331Z,9.90
2018-12-01T14:53:11.454Z,9.90
2018-12-01T14:57:15.102Z,9.80
2018-12-01T15:01:18.761Z,9.80
2018-12-01T15:05:22.503Z,9.70
2018-12-01T15:09:26.153Z,9.60
2018-12-01T15:13:29.802Z,9.60
2018-12-01T15:17:33.544Z,9.50
2018-12-01T15:21:37.175Z,9.50
2018-12-01T15:25:40.854Z,9.40
2018-12-01T15:29:44.550Z,9.40
2018-12-01T15:33:48.318Z,9.30
2018-12-01T15:37:52.061Z,9.30
2018-12-01T15:41:56.446Z,9.20
2018-12-01T15:46:00.092Z,9.20
2018-12-01T15:50:04.226Z,9.10
2018-12-01T15:54:07.994Z,9.10
2018-12-01T15:58:11.666Z,9.10
2018-12-01T16:02:16.036Z,9.00
2018-12-01T16:06:19.758Z,9.00
2018-12-01T16:10:23.959Z,9.00
2018-12-01T16:14:27.691Z,9.00
2018-12-01T16:18:31.385Z,8.90
2018-12-01T16:22:35.126Z,8.90
2018-12-01T16:26:38.784Z,8.90
2018-12-01T16:30:44.053Z,8.80
2018-12-01T16:34:47.714Z,8.80
2018-12-01T16:38:51.533Z,8.80
2018-12-01T16:43:02.496Z,8.70
2018-12-01T16:47:06.569Z,8.70
2018-12-01T16:51:10.251Z,8.70
2018-12-01T16:55:15.278Z,8.70
2018-12-01T16:59:18.938Z,8.70
2018-12-01T17:03:22.629Z,8.70
2018-12-01T17:07:26.322Z,8.60
2018-12-01T17:11:30.019Z,8.60
2018-12-01T17:15:33.714Z,8.60
2018-12-01T17:19:37.458Z,8.60
2018-12-01T17:23:41.137Z,8.60
2018-12-01T17:27:45.246Z,8.50
2018-12-01T17:31:48.903Z,8.50
2018-12-01T17:35:52.606Z,8.40
2018-12-01T17:39:56.347Z,8.50
2018-12-01T17:44:02.531Z,8.40
2018-12-01T17:48:07.172Z,8.40
2018-12-01T17:52:10.981Z,8.30
2018-12-01T17:56:14.631Z,8.30
2018-12-01T18:00:19.739Z,8.30
2018-12-01T18:04:23.407Z,8.20
2018-12-01T18:08:27.086Z,8.20
2018-12-01T18:12:30.772Z,8.20
2018-12-01T18:16:34.411Z,8.20
2018-12-01T18:20:38.168Z,8.20
2018-12-01T18:24:41.865Z,8.20
2018-12-01T18:28:47.717Z,8.20
2018-12-01T18:32:51.867Z,8.30
2018-12-01T18:36:55.727Z,8.20
2018-12-01T18:40:59.733Z,8.20
2018-12-01T18:45:03.511Z,8.20
2018-12-01T18:49:07.194Z,8.20
2018-12-01T18:53:11.226Z,8.20
2018-12-01T18:57:15.625Z,8.30
2018-12-01T19:01:19.316Z,8.20
2018-12-01T19:05:23.034Z,8.20
2018-12-01T19:09:26.724Z,8.20
2018-12-01T19:13:30.489Z,8.20
2018-12-01T19:17:34.361Z,8.20
2018-12-01T19:21:38.156Z,8.20
2018-12-01T19:25:44.190Z,8.20
2018-12-01T19:29:48.050Z,8.30
2018-12-01T19:33:52.039Z,8.30
2018-12-01T19:37:56.227Z,8.30
2018-12-01T19:42:00.098Z,8.30
2018-12-01T19:46:03.877Z,8.30
2018-12-01T19:50:40.414Z,8.30
2018-12-01T19:54:44.339Z,8.30
2018-12-01T19:58:48.091Z,8.30
2018-12-01T20:02:52.062Z,8.40
2018-12-01T20:06:55.969Z,8.40
2018-12-01T20:11:01.519Z,8.40
2018-12-01T20:15:08.937Z,8.40
2018-12-01T20:19:12.738Z,8.50
2018-12-01T20:23:16.697Z,8.50
2018-12-01T20:27:20.449Z,8.50
2018-12-01T20:31:24.275Z,8.50
2018-12-01T20:35:37.329Z,8.60
2018-12-01T20:39:43.161Z,8.50
2018-12-01T20:43:47.074Z,8.60
2018-12-01T20:47:50.806Z,8.60
2018-12-01T20:51:54.576Z,8.60
2018-12-01T20:55:59.146Z,8.70
2018-12-01T21:00:03.014Z,8.70
2018-12-01T21:04:06.786Z,8.70
2018-12-01T21:08:10.604Z,8.70
2018-12-01T21:12:15.076Z,8.70
2018-12-01T21:16:18.754Z,8.80
2018-12-01T21:20:22.467Z,8.80
2018-12-01T21:24:26.142Z,8.80
2018-12-01T21:28:29.783Z,8.80
2018-12-01T21:32:33.459Z,8.80
2018-12-01T21:36:37.132Z,8.80
2018-12-01T21:40:41.483Z,8.80
2018-12-01T21:47:19.677Z,8.80
2018-12-01T21:51:23.350Z,8.80
2018-12-01T21:55:27.033Z,8.80
2018-12-01T21:59:30.689Z,8.80
2018-12-01T22:03:34.375Z,8.80
2018-12-01T22:07:38.082Z,8.80
2018-12-01T22:11:41.758Z,8.80
2018-12-01T22:15:45.468Z,8.80
2018-12-01T22:19:49.146Z,8.80
2018-12-01T22:23:52.808Z,8.70
2018-12-01T22:27:56.488Z,8.70
2018-12-01T22:32:00.229Z,8.80
2018-12-01T22:36:03.892Z,8.80
2018-12-01T22:40:15.654Z,8.80
2018-12-01T22:44:19.382Z,8.80
2018-12-01T22:48:24.690Z,8.80
2018-12-01T22:52:28.406Z,8.80
2018-12-01T22:56:32.138Z,8.80
2018-12-01T23:01:07.076Z,8.90
2018-12-01T23:05:10.802Z,8.80
2018-12-01T23:09:14.625Z,8.90
2018-12-01T23:13:18.400Z,8.90
2018-12-01T23:17:22.078Z,8.90
2018-12-01T23:21:25.786Z,8.90
2018-12-01T23:25:29.638Z,8.90
2018-12-01T23:29:33.325Z,8.90
2018-12-01T23:33:37.079Z,8.90
2018-12-01T23:37:40.782Z,9.30
2018-12-01T23:41:44.443Z,9.50
2018-12-01T23:45:48.258Z,9.70
2018-12-01T23:49:51.934Z,9.50
2018-12-01T23:53:55.626Z,9.30
2018-12-01T23:57:59.268Z,9.30
